TimeMDT,TemperatureF,Dew PointF,Humidity,Sea Level PressureIn,VisibilityMPH,Wind Direction,Wind SpeedMPH,Gust SpeedMPH,PrecipitationIn,Events,Conditions,WindDirDegrees,DateUTC
12:53 AM,43.0,35.1,74,29.90,10.0,North,11.5,-,N/A,,Mostly Cloudy,10,2012-10-09 06:53:00
2:04 AM,41.0,33.8,76,29.99,10.0,North,10.4,-,N/A,,Scattered Clouds,10,2012-10-09 08:04:00
2:11 AM,41.0,33.8,76,29.99,10.0,North,10.4,-,N/A,,Mostly Cloudy,360,2012-10-09 08:11:00
2:53 AM,41.0,34.0,76,29.92,10.0,North,8.1,-,N/A,,Overcast,360,2012-10-09 08:53:00
3:53 AM,39.9,35.1,83,29.94,10.0,North,13.8,-,N/A,,Overcast,10,2012-10-09 09:53:00
4:00 AM,39.2,35.6,87,30.01,10.0,NNE,12.7,-,N/A,,Overcast,20,2012-10-09 10:00:00
4:53 AM,37.9,33.1,83,29.97,10.0,North,11.5,-,N/A,,Overcast,360,2012-10-09 10:53:00
5:04 AM,37.4,32.0,81,30.03,10.0,North,11.5,-,N/A,,Overcast,360,2012-10-09 11:04:00
5:53 AM,37.0,32.0,82,30.01,10.0,North,15.0,-,N/A,,Overcast,10,2012-10-09 11:53:00
6:12 AM,35.6,32.0,87,30.06,10.0,North,12.7,-,N/A,,Overcast,10,2012-10-09 12:12:00
6:53 AM,35.1,30.0,82,30.06,10.0,North,6.9,17.3,N/A,,Overcast,360,2012-10-09 12:53:00
7:01 AM,35.6,30.2,81,30.08,10.0,North,9.2,-,N/A,,Overcast,10,2012-10-09 13:01:00
7:18 AM,33.8,28.4,81,30.09,10.0,North,6.9,-,N/A,,Overcast,360,2012-10-09 13:18:00
7:53 AM,34.0,28.9,82,30.09,10.0,North,5.8,-,N/A,,Overcast,350,2012-10-09 13:53:00
8:53 AM,35.1,28.9,78,30.13,10.0,NNW,9.2,-,0.00,,Overcast,340,2012-10-09 14:53:00
9:45 AM,35.6,30.2,81,30.14,9.0,North,5.8,-,0.00,Snow,Light Snow,350,2012-10-09 15:45:00
9:53 AM,35.1,30.9,85,30.15,9.0,NNW,4.6,-,0.00,,Overcast,340,2012-10-09 15:53:00
10:16 AM,35.6,30.2,81,30.15,10.0,NNW,4.6,-,N/A,,Overcast,330,2012-10-09 16:16:00
10:43 AM,35.6,30.2,81,30.15,10.0,NW,5.8,-,N/A,,Overcast,320,2012-10-09 16:43:00
10:53 AM,37.0,30.9,79,30.16,10.0,NNW,5.8,-,N/A,,Overcast,330,2012-10-09 16:53:00
11:04 AM,37.4,30.2,75,30.15,10.0,NNW,6.9,-,N/A,,Overcast,340,2012-10-09 17:04:00
11:31 AM,37.4,28.4,70,30.16,10.0,NW,9.2,-,N/A,,Overcast,320,2012-10-09 17:31:00
11:53 AM,37.9,28.0,68,30.17,10.0,NW,9.2,-,N/A,,Overcast,310,2012-10-09 17:53:00
12:12 PM,39.2,28.4,65,30.16,10.0,NW,8.1,-,N/A,,Overcast,320,2012-10-09 18:12:00
12:38 PM,39.2,28.4,65,30.16,10.0,NNW,8.1,-,N/A,,Overcast,330,2012-10-09 18:38:00
12:53 PM,39.9,28.9,65,30.16,10.0,WNW,5.8,-,N/A,,Overcast,290,2012-10-09 18:53:00
1:53 PM,41.0,26.1,55,30.15,10.0,NW,8.1,-,N/A,,Overcast,310,2012-10-09 19:53:00
2:53 PM,46.0,26.1,46,30.12,10.0,West,10.4,18.4,N/A,,Mostly Cloudy,280,2012-10-09 20:53:00
3:53 PM,46.0,27.0,47,30.12,10.0,WNW,11.5,-,N/A,,Partly Cloudy,300,2012-10-09 21:53:00
4:53 PM,46.9,28.0,48,30.12,10.0,WNW,8.1,-,N/A,,Clear,300,2012-10-09 22:53:00
5:53 PM,45.0,28.9,53,30.13,10.0,WNW,5.8,-,N/A,,Partly Cloudy,300,2012-10-09 23:53:00
6:53 PM,39.9,28.0,63,30.16,10.0,NNW,3.5,-,N/A,,Clear,340,2012-10-10 00:53:00
7:53 PM,36.0,26.1,67,30.19,10.0,East,3.5,-,N/A,,Clear,100,2012-10-10 01:53:00
8:53 PM,32.0,25.0,75,30.22,10.0,East,3.5,-,N/A,,Clear,100,2012-10-10 02:53:00
9:53 PM,33.1,26.1,75,30.23,10.0,Calm,Calm,-,N/A,,Clear,0,2012-10-10 03:53:00
10:53 PM,30.9,25.0,79,30.24,10.0,Calm,Calm,-,N/A,,Clear,0,2012-10-10 04:53:00
11:53 PM,30.0,24.1,79,30.23,10.0,Calm,Calm,-,N/A,,Clear,0,2012-10-10 05:53:00